Time;durP1;ratioP1;P1;durP2;ratioP2;P2;SDS_P1;SDS_P2;PMS_P1;PMS_P2;Temp;Humidity;BMP_temperature;BMP_pressure;BME280_temperature;BME280_humidity;BME280_pressure;Samples;Min_cycle;Max_cycle;Signal;HPM_P1;HPM_P2
2024/01/06 00:02:19;;;;;;;15.10;6.60;;;;;;;;;;4997713;28;20639;-83
2024/01/06 00:04:45;;;;;;;8.60;6.70;;;;;;;;;;4997739;28;20409;-82
2024/01/06 00:07:13;;;;;;;8.93;7.10;;;;;;;;;;4997827;28;20420;-83
2024/01/06 00:09:39;;;;;;;12.32;7.10;;;;;;;;;;4996757;28;20419;-83
2024/01/06 00:12:05;;;;;;;8.80;6.90;;;;;;;;;;4997233;28;20647;-83
2024/01/06 00:14:31;;;;;;;8.63;7.55;;;;;;;;;;4996038;28;20407;-84
2024/01/06 00:16:57;;;;;;;11.07;7.80;;;;;;;;;;4996831;28;20270;-86
2024/01/06 00:19:23;;;;;;;11.37;8.03;;;;;;;;;;4997085;28;20409;-85
2024/01/06 00:21:49;;;;;;;12.20;9.00;;;;;;;;;;4997719;28;20527;-85
2024/01/06 00:24:15;;;;;;;13.17;8.00;;;;;;;;;;4979495;28;20929;-85
2024/01/06 00:26:41;;;;;;;10.40;8.70;;;;;;;;;;4978692;28;20426;-85
2024/01/06 00:29:07;;;;;;;11.00;9.18;;;;;;;;;;4995992;28;20743;-85
2024/01/06 00:31:33;;;;;;;11.65;9.95;;;;;;;;;;4997275;28;20202;-86
2024/01/06 00:33:59;;;;;;;9.68;8.63;;;;;;;;;;4978897;28;20714;-85
2024/01/06 00:36:25;;;;;;;13.00;9.83;;;;;;;;;;4996852;28;20173;-85
2024/01/06 00:38:51;;;;;;;11.70;8.93;;;;;;;;;;4996374;28;20922;-86
2024/01/06 00:41:17;;;;;;;10.83;8.97;;;;;;;;;;4997031;28;20558;-85
2024/01/06 00:43:43;;;;;;;11.87;9.93;;;;;;;;;;4995268;28;20411;-86
2024/01/06 00:46:09;;;;;;;14.20;10.35;;;;;;;;;;4996994;28;20465;-86
2024/01/06 00:48:35;;;;;;;11.00;9.33;;;;;;;;;;4999811;28;20183;-87
2024/01/06 00:51:01;;;;;;;14.13;10.48;;;;;;;;;;4999738;28;20422;-86
2024/01/06 00:53:27;;;;;;;17.48;10.98;;;;;;;;;;5000072;28;20172;-86
2024/01/06 00:55:53;;;;;;;15.18;10.80;;;;;;;;;;5001983;28;20207;-86
2024/01/06 00:58:19;;;;;;;12.60;10.67;;;;;;;;;;4998958;28;20536;-86
2024/01/06 01:00:45;;;;;;;15.07;10.40;;;;;;;;;;4999741;28;20463;-86
2024/01/06 01:03:11;;;;;;;13.43;10.33;;;;;;;;;;5000425;28;20406;-86
2024/01/06 01:05:40;;;;;;;15.27;10.10;;;;;;;;;;4999816;28;20812;-86
2024/01/06 01:08:06;;;;;;;13.52;10.95;;;;;;;;;;5002055;28;20418;-86
2024/01/06 01:10:32;;;;;;;12.82;11.35;;;;;;;;;;4982335;28;20222;-89
2024/01/06 01:12:59;;;;;;;18.00;11.00;;;;;;;;;;5001644;28;20176;-86
2024/01/06 01:15:25;;;;;;;15.38;11.77;;;;;;;;;;5000305;28;20802;-86
2024/01/06 01:17:51;;;;;;;17.45;12.10;;;;;;;;;;5000829;28;20282;-86
2024/01/06 01:20:17;;;;;;;17.53;11.67;;;;;;;;;;5001242;28;20242;-86
2024/01/06 01:22:43;;;;;;;13.38;10.98;;;;;;;;;;5000231;28;20461;-86
2024/01/06 01:25:09;;;;;;;15.87;11.30;;;;;;;;;;4999084;28;20187;-86
2024/01/06 01:27:35;;;;;;;14.02;11.43;;;;;;;;;;4998547;28;20417;-87
2024/01/06 01:30:01;;;;;;;17.13;11.80;;;;;;;;;;4997678;28;20185;-86
2024/01/06 01:32:27;;;;;;;15.10;11.32;;;;;;;;;;4998376;28;20259;-86
2024/01/06 01:34:53;;;;;;;16.53;12.33;;;;;;;;;;4999243;28;20273;-87
2024/01/06 01:37:19;;;;;;;14.35;11.82;;;;;;;;;;5008703;28;20410;-86
2024/01/06 01:39:45;;;;;;;16.53;12.33;;;;;;;;;;4997132;28;20176;-87
2024/01/06 01:42:11;;;;;;;17.35;13.85;;;;;;;;;;5007434;28;20846;-87
2024/01/06 01:44:37;;;;;;;20.37;12.87;;;;;;;;;;5010637;28;20191;-87
2024/01/06 01:47:05;;;;;;;23.67;13.10;;;;;;;;;;5006374;28;20907;-86
2024/01/06 01:49:32;;;;;;;15.50;12.00;;;;;;;;;;5002766;28;20399;-86
2024/01/06 01:51:58;;;;;;;19.38;14.70;;;;;;;;;;5001039;28;20767;-87
2024/01/06 01:54:24;;;;;;;20.42;14.05;;;;;;;;;;5000492;28;20187;-87
2024/01/06 01:56:51;;;;;;;19.25;14.30;;;;;;;;;;4980498;28;20516;-87
2024/01/06 01:59:19;;;;;;;18.77;12.60;;;;;;;;;;4998734;28;20221;-86
2024/01/06 02:01:45;;;;;;;16.00;12.40;;;;;;;;;;4998860;28;20216;-87
2024/01/06 02:04:11;;;;;;;18.08;13.25;;;;;;;;;;4997982;28;20215;-86
2024/01/06 02:06:37;;;;;;;18.85;12.90;;;;;;;;;;4998145;28;20202;-87
2024/01/06 02:09:03;;;;;;;17.67;12.83;;;;;;;;;;4998260;28;20178;-87
2024/01/06 02:11:29;;;;;;;22.52;13.02;;;;;;;;;;4997604;28;20469;-87
2024/01/06 02:13:54;;;;;;;18.10;12.23;;;;;;;;;;4998090;28;20586;-87
2024/01/06 02:16:20;;;;;;;20.63;12.87;;;;;;;;;;4997811;28;20498;-87
2024/01/06 02:18:47;;;;;;;17.00;12.67;;;;;;;;;;4998200;28;20406;-87
2024/01/06 02:21:13;;;;;;;17.88;12.52;;;;;;;;;;4997646;28;20871;-87
2024/01/06 02:23:39;;;;;;;17.77;12.50;;;;;;;;;;4997568;28;20274;-87
2024/01/06 02:26:05;;;;;;;18.53;13.37;;;;;;;;;;4999587;28;20207;-87
2024/01/06 02:28:31;;;;;;;16.70;13.23;;;;;;;;;;4999121;28;20403;-87
2024/01/06 02:30:57;;;;;;;20.77;14.20;;;;;;;;;;4997246;28;20779;-87
2024/01/06 02:33:24;;;;;;;19.60;13.63;;;;;;;;;;4997596;28;20605;-87
2024/01/06 02:35:50;;;;;;;20.70;15.40;;;;;;;;;;4997393;28;20410;-87
2024/01/06 02:38:16;;;;;;;21.90;15.90;;;;;;;;;;4980181;28;20182;-87
2024/01/06 02:40:42;;;;;;;24.73;15.50;;;;;;;;;;4997726;28;20210;-87
2024/01/06 02:43:09;;;;;;;28.45;16.80;;;;;;;;;;4997833;28;20407;-87
2024/01/06 02:45:35;;;;;;;23.50;14.82;;;;;;;;;;4997361;28;20171;-87
2024/01/06 02:48:01;;;;;;;24.70;15.90;;;;;;;;;;4997339;28;20582;-87
2024/01/06 02:50:27;;;;;;;28.53;16.40;;;;;;;;;;4997069;28;20495;-87
2024/01/06 02:52:53;;;;;;;26.07;16.43;;;;;;;;;;4997118;28;20417;-88
2024/01/06 02:55:19;;;;;;;26.70;17.70;;;;;;;;;;4997710;28;20462;-87
2024/01/06 02:57:45;;;;;;;28.70;18.83;;;;;;;;;;4996097;28;20469;-88
2024/01/06 03:00:12;;;;;;;30.60;17.13;;;;;;;;;;4997333;28;20772;-87
2024/01/06 03:02:41;;;;;;;31.42;17.30;;;;;;;;;;4997329;28;20434;-90
2024/01/06 03:05:07;;;;;;;30.40;18.30;;;;;;;;;;4996789;28;20177;-87
2024/01/06 03:07:33;;;;;;;38.38;19.80;;;;;;;;;;4997653;28;20181;-88
2024/01/06 03:09:59;;;;;;;34.30;21.67;;;;;;;;;;4994441;28;20186;-88
2024/01/06 03:12:25;;;;;;;31.77;20.00;;;;;;;;;;4996950;28;20647;-88
2024/01/06 03:14:52;;;;;;;33.13;20.27;;;;;;;;;;4995533;28;20444;-87
2024/01/06 03:17:18;;;;;;;33.65;20.30;;;;;;;;;;5000961;28;20446;-87
2024/01/06 03:19:44;;;;;;;30.80;18.10;;;;;;;;;;4996956;28;20183;-87
2024/01/06 03:22:10;;;;;;;37.03;21.15;;;;;;;;;;4996383;28;20506;-88
2024/01/06 03:24:36;;;;;;;30.37;18.77;;;;;;;;;;4996616;28;20198;-87
2024/01/06 03:27:03;;;;;;;33.28;19.67;;;;;;;;;;4996688;28;20412;-87
2024/01/06 03:29:29;;;;;;;33.28;19.73;;;;;;;;;;4996865;28;20217;-87
2024/01/06 03:31:55;;;;;;;37.30;20.80;;;;;;;;;;4996387;28;20201;-87
2024/01/06 03:34:20;;;;;;;32.13;20.30;;;;;;;;;;4996399;28;20509;-87
2024/01/06 03:36:46;;;;;;;31.27;19.83;;;;;;;;;;4996525;28;20182;-88
2024/01/06 03:39:13;;;;;;;34.23;21.77;;;;;;;;;;4996968;28;20399;-87
2024/01/06 03:41:39;;;;;;;34.90;21.67;;;;;;;;;;4996990;28;20823;-87
2024/01/06 03:44:05;;;;;;;44.70;22.87;;;;;;;;;;4996338;28;20246;-87
2024/01/06 03:46:31;;;;;;;43.07;24.23;;;;;;;;;;4997218;28;20957;-87
2024/01/06 03:48:57;;;;;;;35.70;22.33;;;;;;;;;;4978402;28;20434;-87
2024/01/06 03:51:23;;;;;;;39.90;22.03;;;;;;;;;;4995160;28;20513;-87
2024/01/06 03:53:49;;;;;;;39.73;21.97;;;;;;;;;;4995829;28;20887;-88
2024/01/06 03:56:15;;;;;;;36.23;20.77;;;;;;;;;;4995539;28;20418;-87
2024/01/06 03:58:41;;;;;;;44.13;22.33;;;;;;;;;;4995967;28;20421;-87
2024/01/06 04:01:07;;;;;;;44.93;24.70;;;;;;;;;;4995693;28;20557;-87
2024/01/06 04:03:33;;;;;;;45.53;23.57;;;;;;;;;;4996048;28;20412;-87
2024/01/06 04:05:59;;;;;;;42.20;23.93;;;;;;;;;;4995425;28;20405;-87
2024/01/06 04:08:25;;;;;;;46.20;23.75;;;;;;;;;;4978382;28;20414;-86
2024/01/06 04:10:51;;;;;;;47.00;24.20;;;;;;;;;;4995649;28;20541;-86
2024/01/06 04:13:17;;;;;;;51.50;25.83;;;;;;;;;;4996909;28;20425;-86
2024/01/06 04:15:43;;;;;;;46.60;24.50;;;;;;;;;;4995798;28;20546;-89
2024/01/06 04:18:09;;;;;;;44.75;25.48;;;;;;;;;;4994446;28;20773;-86
2024/01/06 04:20:36;;;;;;;48.58;26.60;;;;;;;;;;4995532;28;20212;-87
2024/01/06 04:23:02;;;;;;;51.92;24.00;;;;;;;;;;4999263;28;20197;-87
2024/01/06 04:25:29;;;;;;;51.92;26.40;;;;;;;;;;4999913;28;20342;-87
2024/01/06 04:27:55;;;;;;;49.87;24.50;;;;;;;;;;5010197;28;20175;-87
2024/01/06 04:30:21;;;;;;;48.87;25.80;;;;;;;;;;5001367;28;20415;-86
2024/01/06 04:32:48;;;;;;;54.47;27.63;;;;;;;;;;5000497;28;20451;-87
2024/01/06 04:35:14;;;;;;;58.53;29.08;;;;;;;;;;4982603;28;20189;-87
2024/01/06 04:37:40;;;;;;;51.72;25.02;;;;;;;;;;4999774;28;20175;-87
2024/01/06 04:40:07;;;;;;;54.27;26.40;;;;;;;;;;4999259;28;20187;-87
2024/01/06 04:42:33;;;;;;;55.47;26.02;;;;;;;;;;4999520;28;20414;-86
2024/01/06 04:44:59;;;;;;;54.90;25.60;;;;;;;;;;4999229;28;20225;-86
2024/01/06 04:47:26;;;;;;;54.33;25.60;;;;;;;;;;4999285;28;20430;-86
2024/01/06 04:49:52;;;;;;;50.08;25.52;;;;;;;;;;4981782;28;20486;-86
2024/01/06 04:52:18;;;;;;;59.47;28.47;;;;;;;;;;4982142;28;20326;-86
2024/01/06 04:54:44;;;;;;;60.45;28.20;;;;;;;;;;4999276;28;20422;-86
2024/01/06 04:57:10;;;;;;;61.40;26.80;;;;;;;;;;4999253;28;20187;-86
2024/01/06 04:59:36;;;;;;;55.57;28.30;;;;;;;;;;4999455;28;20410;-86
2024/01/06 05:02:02;;;;;;;52.73;24.30;;;;;;;;;;4998470;28;20568;-86
2024/01/06 05:04:30;;;;;;;66.78;28.33;;;;;;;;;;4999115;28;20423;-86
2024/01/06 05:06:56;;;;;;;69.10;28.30;;;;;;;;;;4998384;28;20215;-86
2024/01/06 05:09:22;;;;;;;59.97;28.50;;;;;;;;;;4998817;28;20186;-86
2024/01/06 05:11:48;;;;;;;59.40;27.00;;;;;;;;;;4998910;28;20426;-87
2024/01/06 05:14:14;;;;;;;68.60;27.60;;;;;;;;;;4998970;28;20414;-86
2024/01/06 05:16:40;;;;;;;53.23;24.90;;;;;;;;;;4998984;28;20932;-86
2024/01/06 05:19:06;;;;;;;48.72;22.00;;;;;;;;;;4998712;28;20777;-86
2024/01/06 05:21:32;;;;;;;49.42;22.42;;;;;;;;;;4981479;28;20666;-86
2024/01/06 05:23:58;;;;;;;45.05;20.42;;;;;;;;;;4998879;28;20191;-86
2024/01/06 05:26:24;;;;;;;46.53;18.70;;;;;;;;;;4998904;28;20179;-86
2024/01/06 05:28:50;;;;;;;49.37;19.10;;;;;;;;;;4997168;28;20409;-86
2024/01/06 05:31:16;;;;;;;48.87;19.23;;;;;;;;;;4998566;28;20468;-86
2024/01/06 05:33:42;;;;;;;39.67;19.30;;;;;;;;;;4997838;28;20462;-86
2024/01/06 05:36:08;;;;;;;40.75;18.13;;;;;;;;;;4998453;28;20414;-86
2024/01/06 05:38:34;;;;;;;34.83;16.92;;;;;;;;;;4998436;28;20243;-86
2024/01/06 05:41:00;;;;;;;38.27;18.00;;;;;;;;;;4998427;28;20201;-86
2024/01/06 05:43:26;;;;;;;39.90;15.00;;;;;;;;;;4998059;28;20498;-86
2024/01/06 05:45:52;;;;;;;31.10;14.50;;;;;;;;;;4997755;28;20407;-87
2024/01/06 05:48:18;;;;;;;25.77;13.30;;;;;;;;;;4998296;28;20176;-86
2024/01/06 05:50:44;;;;;;;30.17;15.23;;;;;;;;;;4997894;28;20418;-86
2024/01/06 05:53:10;;;;;;;31.95;14.40;;;;;;;;;;4998025;28;20403;-87
2024/01/06 05:55:36;;;;;;;33.47;15.90;;;;;;;;;;4998426;28;20219;-87
2024/01/06 05:58:02;;;;;;;31.93;15.40;;;;;;;;;;4997588;28;20187;-87
2024/01/06 06:00:31;;;;;;;34.20;14.52;;;;;;;;;;4998464;28;20545;-87
2024/01/06 06:02:57;;;;;;;27.95;14.10;;;;;;;;;;4997593;28;20173;-87
2024/01/06 06:05:23;;;;;;;31.17;15.13;;;;;;;;;;4997880;28;20172;-87
2024/01/06 06:07:49;;;;;;;33.70;14.50;;;;;;;;;;4997446;28;20185;-87
2024/01/06 06:10:21;;;;;;;29.70;13.93;;;;;;;;;;4997047;28;20186;-87
2024/01/06 06:12:47;;;;;;;35.20;15.07;;;;;;;;;;4997995;28;20164;-87
2024/01/06 06:15:13;;;;;;;32.78;14.15;;;;;;;;;;4997373;28;20175;-87
2024/01/06 06:17:40;;;;;;;28.75;13.55;;;;;;;;;;4997761;28;20263;-86
2024/01/06 06:20:06;;;;;;;34.97;14.73;;;;;;;;;;4997406;28;20174;-87
2024/01/06 06:22:32;;;;;;;26.48;13.63;;;;;;;;;;4997649;28;20241;-87
2024/01/06 06:24:59;;;;;;;26.02;12.90;;;;;;;;;;4997586;28;20559;-87
2024/01/06 06:27:25;;;;;;;30.48;12.55;;;;;;;;;;4997523;28;20198;-87
2024/01/06 06:29:51;;;;;;;31.20;14.50;;;;;;;;;;4996980;28;20181;-88
2024/01/06 06:32:17;;;;;;;25.10;12.60;;;;;;;;;;4997933;28;20632;-87
2024/01/06 06:34:43;;;;;;;27.33;12.20;;;;;;;;;;4996298;28;20466;-86
2024/01/06 06:37:09;;;;;;;24.73;11.77;;;;;;;;;;4997072;28;20182;-86
2024/01/06 06:39:35;;;;;;;27.63;12.93;;;;;;;;;;4997284;28;20279;-86
2024/01/06 06:42:02;;;;;;;26.60;11.82;;;;;;;;;;4979410;28;20468;-87
2024/01/06 06:44:29;;;;;;;31.92;13.20;;;;;;;;;;4997348;28;20183;-86
2024/01/06 06:46:55;;;;;;;30.45;13.55;;;;;;;;;;4979830;28;20275;-87
2024/01/06 06:49:21;;;;;;;31.73;13.60;;;;;;;;;;4997495;28;20185;-86
2024/01/06 06:51:48;;;;;;;30.10;14.10;;;;;;;;;;4996995;28;20213;-86
2024/01/06 06:54:15;;;;;;;34.53;13.60;;;;;;;;;;4996738;28;20419;-87
2024/01/06 06:56:41;;;;;;;34.42;12.88;;;;;;;;;;4997023;28;20188;-87
2024/01/06 06:59:07;;;;;;;34.85;14.60;;;;;;;;;;4996721;28;20186;-87
2024/01/06 07:01:34;;;;;;;31.37;13.97;;;;;;;;;;4997287;28;20207;-86
2024/01/06 07:03:59;;;;;;;35.50;14.10;;;;;;;;;;4997147;28;20411;-86
2024/01/06 07:06:25;;;;;;;30.93;14.93;;;;;;;;;;4997312;28;20182;-86
2024/01/06 07:08:51;;;;;;;40.50;15.18;;;;;;;;;;4997203;28;20415;-86
2024/01/06 07:11:18;;;;;;;32.00;13.13;;;;;;;;;;4996810;28;20191;-86
2024/01/06 07:13:44;;;;;;;32.72;15.10;;;;;;;;;;4997360;28;20411;-86
2024/01/06 07:16:11;;;;;;;30.70;13.80;;;;;;;;;;4996565;28;20172;-86
2024/01/06 07:18:37;;;;;;;32.15;13.88;;;;;;;;;;4997342;28;20168;-86
2024/01/06 07:21:06;;;;;;;31.90;13.75;;;;;;;;;;4996906;28;20561;-86
2024/01/06 07:23:32;;;;;;;31.98;13.48;;;;;;;;;;4996828;28;20192;-86
2024/01/06 07:25:58;;;;;;;30.58;13.73;;;;;;;;;;4996218;28;20171;-86
2024/01/06 07:28:25;;;;;;;30.77;15.00;;;;;;;;;;4979151;28;20188;-86
2024/01/06 07:30:52;;;;;;;26.88;13.35;;;;;;;;;;4996935;28;20171;-86
2024/01/06 07:33:18;;;;;;;35.95;15.55;;;;;;;;;;4996384;28;20233;-86
2024/01/06 07:35:44;;;;;;;31.57;14.47;;;;;;;;;;4997160;28;20206;-85
2024/01/06 07:38:10;;;;;;;35.47;13.30;;;;;;;;;;4978716;28;20434;-86
2024/01/06 07:40:36;;;;;;;34.53;15.45;;;;;;;;;;4996399;28;20455;-85
2024/01/06 07:43:03;;;;;;;35.53;15.40;;;;;;;;;;4995460;28;20541;-86
2024/01/06 07:45:28;;;;;;;32.50;13.55;;;;;;;;;;4996658;28;20171;-85
2024/01/06 07:47:54;;;;;;;34.50;15.60;;;;;;;;;;4996341;28;20191;-85
2024/01/06 07:50:20;;;;;;;29.20;13.10;;;;;;;;;;4996283;28;20421;-86
2024/01/06 07:52:46;;;;;;;29.93;13.60;;;;;;;;;;4996083;28;20421;-86
2024/01/06 07:55:12;;;;;;;34.27;15.70;;;;;;;;;;4994700;28;20430;-85
2024/01/06 07:57:38;;;;;;;37.80;15.07;;;;;;;;;;4995671;28;20410;-85
2024/01/06 08:00:05;;;;;;;30.57;13.80;;;;;;;;;;4996135;28;20504;-86
2024/01/06 08:02:30;;;;;;;33.30;14.02;;;;;;;;;;4996134;28;20445;-85
2024/01/06 08:04:57;;;;;;;37.00;15.83;;;;;;;;;;4996077;28;20179;-86
2024/01/06 08:07:23;;;;;;;27.73;12.68;;;;;;;;;;4995793;28;20408;-86
2024/01/06 08:09:49;;;;;;;28.13;14.68;;;;;;;;;;4995928;28;20179;-85
2024/01/06 08:12:15;;;;;;;26.50;12.70;;;;;;;;;;4995811;28;20258;-85
2024/01/06 08:14:41;;;;;;;33.20;14.77;;;;;;;;;;4996246;28;20428;-85
2024/01/06 08:17:07;;;;;;;30.93;14.23;;;;;;;;;;4995699;28;20202;-85
2024/01/06 08:19:35;;;;;;;29.35;12.00;;;;;;;;;;4995596;28;20556;-85
2024/01/06 08:22:01;;;;;;;39.05;14.23;;;;;;;;;;4996937;28;20656;-84
2024/01/06 08:24:27;;;;;;;37.77;16.00;;;;;;;;;;4984177;28;20401;-84
2024/01/06 08:26:53;;;;;;;31.77;14.90;;;;;;;;;;4996107;28;20502;-85
2024/01/06 08:29:19;;;;;;;26.55;13.63;;;;;;;;;;4996417;28;20422;-85
2024/01/06 08:31:45;;;;;;;33.28;16.70;;;;;;;;;;4996602;28;20175;-84
2024/01/06 08:34:11;;;;;;;32.88;14.80;;;;;;;;;;4995872;28;20293;-85
2024/01/06 08:36:38;;;;;;;33.97;14.90;;;;;;;;;;4995608;28;20183;-85
2024/01/06 08:39:04;;;;;;;25.48;12.57;;;;;;;;;;4994275;28;20446;-85
2024/01/06 08:41:30;;;;;;;32.00;14.52;;;;;;;;;;4995901;28;20306;-84
2024/01/06 08:43:56;;;;;;;29.92;13.85;;;;;;;;;;4995493;28;20591;-84
2024/01/06 08:46:22;;;;;;;31.33;13.40;;;;;;;;;;4995379;28;20214;-84
2024/01/06 08:48:48;;;;;;;34.00;14.40;;;;;;;;;;4995029;28;20423;-84
2024/01/06 08:51:14;;;;;;;28.00;14.27;;;;;;;;;;4995306;28;20175;-84
2024/01/06 08:53:40;;;;;;;34.80;14.97;;;;;;;;;;4994813;28;20442;-84
2024/01/06 08:56:06;;;;;;;30.30;13.87;;;;;;;;;;4998090;28;20429;-84
2024/01/06 08:58:32;;;;;;;27.85;12.27;;;;;;;;;;5000631;28;20489;-85
2024/01/06 09:00:59;;;;;;;24.90;12.03;;;;;;;;;;4994791;28;20207;-84
2024/01/06 09:03:25;;;;;;;29.95;12.23;;;;;;;;;;4995744;28;20446;-85
2024/01/06 09:05:57;;;;;;;30.52;12.55;;;;;;;;;;4995905;28;20183;-84
2024/01/06 09:08:27;;;;;;;28.27;13.20;;;;;;;;;;4998117;28;20168;-84
2024/01/06 09:10:56;;;;;;;28.50;12.18;;;;;;;;;;4999383;28;20184;-84
2024/01/06 09:13:23;;;;;;;24.92;11.23;;;;;;;;;;4999103;28;20229;-84
2024/01/06 09:15:49;;;;;;;30.85;13.23;;;;;;;;;;4998080;28;20167;-84
2024/01/06 09:18:15;;;;;;;18.33;10.90;;;;;;;;;;4997593;28;20196;-84
2024/01/06 09:20:41;;;;;;;19.90;12.20;;;;;;;;;;4998629;28;20212;-84
2024/01/06 09:23:07;;;;;;;21.70;9.77;;;;;;;;;;4998978;28;20473;-84
2024/01/06 09:25:33;;;;;;;22.83;11.18;;;;;;;;;;4981630;28;20931;-84
2024/01/06 09:28:00;;;;;;;27.15;10.73;;;;;;;;;;4999209;28;20187;-84
2024/01/06 09:30:27;;;;;;;22.63;10.25;;;;;;;;;;4998271;28;20194;-84
2024/01/06 09:32:53;;;;;;;21.10;10.00;;;;;;;;;;4998089;28;20175;-83
2024/01/06 09:35:19;;;;;;;18.47;9.90;;;;;;;;;;4998697;28;20175;-84
2024/01/06 09:37:45;;;;;;;25.45;10.63;;;;;;;;;;4998366;28;20411;-83
2024/01/06 09:40:15;;;;;;;25.73;10.13;;;;;;;;;;4998181;28;20186;-84
2024/01/06 09:42:41;;;;;;;18.45;9.35;;;;;;;;;;4998546;28;20502;-83
2024/01/06 09:45:08;;;;;;;29.42;15.18;;;;;;;;;;4998556;28;20266;-84
2024/01/06 09:47:35;;;;;;;20.27;9.85;;;;;;;;;;4998794;28;20186;-84
2024/01/06 09:50:04;;;;;;;20.70;9.10;;;;;;;;;;4998305;28;20171;-84
2024/01/06 09:52:32;;;;;;;18.48;8.75;;;;;;;;;;4998072;28;20171;-83
2024/01/06 09:55:00;;;;;;;24.13;9.70;;;;;;;;;;4998566;28;20610;-84
2024/01/06 09:57:27;;;;;;;16.17;9.05;;;;;;;;;;4980793;28;20175;-84
2024/01/06 09:59:53;;;;;;;18.45;8.50;;;;;;;;;;4997535;28;20210;-84
2024/01/06 10:02:20;;;;;;;15.90;8.50;;;;;;;;;;4997683;28;20239;-84
2024/01/06 10:04:46;;;;;;;17.25;9.48;;;;;;;;;;4998432;28;20171;-84
2024/01/06 10:07:13;;;;;;;19.23;11.57;;;;;;;;;;4997866;28;20187;-84
2024/01/06 10:09:40;;;;;;;19.90;9.85;;;;;;;;;;4997886;28;20429;-84
2024/01/06 10:12:07;;;;;;;18.60;11.10;;;;;;;;;;4997435;28;20183;-85
2024/01/06 10:14:33;;;;;;;21.25;10.80;;;;;;;;;;4998170;28;20175;-84
2024/01/06 10:16:59;;;;;;;22.77;11.23;;;;;;;;;;4980199;28;20186;-84
2024/01/06 10:19:25;;;;;;;19.90;9.47;;;;;;;;;;4996894;28;20442;-83
2024/01/06 10:21:51;;;;;;;20.02;10.27;;;;;;;;;;4997952;28;20473;-83
2024/01/06 10:24:20;;;;;;;20.23;10.05;;;;;;;;;;4997727;28;20214;-84
2024/01/06 10:26:46;;;;;;;18.83;10.95;;;;;;;;;;4997588;28;20574;-83
2024/01/06 10:29:13;;;;;;;18.05;9.05;;;;;;;;;;4997829;28;20175;-83
2024/01/06 10:31:39;;;;;;;21.48;10.05;;;;;;;;;;4985005;28;20194;-83
2024/01/06 10:34:06;;;;;;;21.75;11.02;;;;;;;;;;4997492;28;20235;-86
2024/01/06 10:36:32;;;;;;;20.65;11.02;;;;;;;;;;4997533;28;20668;-84
2024/01/06 10:38:58;;;;;;;17.73;9.10;;;;;;;;;;4997782;28;20175;-83
2024/01/06 10:41:25;;;;;;;17.77;9.75;;;;;;;;;;4996955;28;20195;-83
2024/01/06 10:43:51;;;;;;;20.33;10.43;;;;;;;;;;4997238;28;20180;-83
2024/01/06 10:46:19;;;;;;;20.17;9.52;;;;;;;;;;4997190;28;20270;-84
2024/01/06 10:48:46;;;;;;;18.80;10.30;;;;;;;;;;4997062;28;20171;-83
2024/01/06 10:51:13;;;;;;;17.15;9.60;;;;;;;;;;4997131;28;20183;-83
2024/01/06 10:53:40;;;;;;;19.25;10.55;;;;;;;;;;4997246;28;20174;-83
2024/01/06 10:56:13;;;;;;;21.42;10.95;;;;;;;;;;4996548;28;20316;-85
2024/01/06 10:58:57;;;;;;;18.25;9.98;;;;;;;;;;4996879;28;20175;-83
2024/01/06 11:01:24;;;;;;;17.23;9.98;;;;;;;;;;4997262;28;20195;-83
2024/01/06 11:03:50;;;;;;;17.25;9.52;;;;;;;;;;4996752;28;20189;-83
2024/01/06 11:06:17;;;;;;;17.55;9.35;;;;;;;;;;4996922;28;20187;-83
2024/01/06 11:08:49;;;;;;;17.38;9.55;;;;;;;;;;4997237;28;20548;-83
2024/01/06 11:11:16;;;;;;;16.05;9.15;;;;;;;;;;4985568;28;20180;-83
2024/01/06 11:13:45;;;;;;;19.10;10.45;;;;;;;;;;4997312;28;20211;-83
2024/01/06 11:16:11;;;;;;;21.60;9.80;;;;;;;;;;4996969;28;20622;-83
2024/01/06 11:18:41;;;;;;;18.98;10.00;;;;;;;;;;4997340;28;20690;-83
2024/01/06 11:21:12;;;;;;;18.38;9.68;;;;;;;;;;4996966;28;20387;-83
2024/01/06 11:23:38;;;;;;;15.50;8.75;;;;;;;;;;4997425;28;20195;-83
2024/01/06 11:26:07;;;;;;;19.00;9.47;;;;;;;;;;4996942;28;20636;-83
2024/01/06 11:28:44;;;;;;;17.25;9.43;;;;;;;;;;4997286;28;20406;-83
2024/01/06 11:31:10;;;;;;;14.18;7.28;;;;;;;;;;4981432;28;20175;-84
2024/01/06 11:33:48;;;;;;;17.63;9.27;;;;;;;;;;4998466;28;20569;-82
2024/01/06 11:36:17;;;;;;;15.60;9.75;;;;;;;;;;4979512;28;20175;-83
2024/01/06 11:38:48;;;;;;;16.65;9.02;;;;;;;;;;4997075;28;20640;-83
2024/01/06 11:41:34;;;;;;;16.77;8.43;;;;;;;;;;4995316;28;20246;-83
2024/01/06 11:44:00;;;;;;;17.13;9.13;;;;;;;;;;4996523;28;20218;-82
2024/01/06 11:46:26;;;;;;;17.37;10.17;;;;;;;;;;4996588;28;20539;-83
2024/01/06 11:48:53;;;;;;;15.93;8.07;;;;;;;;;;4995332;28;20419;-82
2024/01/06 11:51:19;;;;;;;14.38;8.18;;;;;;;;;;4979168;28;20232;-83
2024/01/06 11:53:46;;;;;;;14.15;7.85;;;;;;;;;;4996562;28;20548;-83
2024/01/06 11:56:12;;;;;;;17.73;8.30;;;;;;;;;;4996586;28;20540;-83
2024/01/06 11:58:42;;;;;;;14.00;7.97;;;;;;;;;;4996888;28;20188;-82
2024/01/06 12:01:07;;;;;;;18.58;8.40;;;;;;;;;;4996740;28;20979;-82
2024/01/06 12:03:34;;;;;;;15.77;7.37;;;;;;;;;;4996413;28;20266;-82
2024/01/06 12:06:01;;;;;;;14.90;6.78;;;;;;;;;;4996847;28;20403;-82
2024/01/06 12:08:28;;;;;;;14.10;7.45;;;;;;;;;;4996392;28;20172;-82
2024/01/06 12:11:02;;;;;;;13.43;7.13;;;;;;;;;;4997122;28;20184;-82
2024/01/06 12:13:28;;;;;;;16.58;7.75;;;;;;;;;;4996606;28;20168;-82
2024/01/06 12:15:56;;;;;;;17.27;9.27;;;;;;;;;;4996847;28;20190;-82
2024/01/06 12:18:23;;;;;;;13.57;7.85;;;;;;;;;;4996534;28;20167;-82
2024/01/06 12:20:49;;;;;;;15.88;9.02;;;;;;;;;;4996525;28;20683;-82
2024/01/06 12:23:24;;;;;;;20.60;9.83;;;;;;;;;;4996734;28;20184;-82
2024/01/06 12:25:50;;;;;;;19.13;9.60;;;;;;;;;;4997026;28;20903;-82
2024/01/06 12:28:16;;;;;;;17.80;9.25;;;;;;;;;;4996296;28;20183;-82
2024/01/06 12:30:42;;;;;;;17.75;9.13;;;;;;;;;;4995736;28;20203;-82
2024/01/06 12:33:08;;;;;;;17.23;8.50;;;;;;;;;;4995513;28;20233;-81
2024/01/06 12:35:35;;;;;;;20.05;8.85;;;;;;;;;;4996459;28;20412;-82
2024/01/06 12:38:02;;;;;;;22.20;9.75;;;;;;;;;;4996442;28;20271;-81
2024/01/06 12:40:28;;;;;;;17.50;8.70;;;;;;;;;;4996175;28;20268;-82
2024/01/06 12:42:54;;;;;;;17.20;9.77;;;;;;;;;;4998240;28;20246;-82
2024/01/06 12:45:20;;;;;;;17.03;9.37;;;;;;;;;;5000037;28;20176;-82
2024/01/06 12:47:46;;;;;;;18.87;10.47;;;;;;;;;;5000251;28;20417;-82
2024/01/06 12:50:12;;;;;;;16.57;8.97;;;;;;;;;;4999271;28;20434;-82
2024/01/06 12:52:39;;;;;;;19.75;11.52;;;;;;;;;;4998738;28;20449;-82
2024/01/06 12:55:05;;;;;;;17.45;9.73;;;;;;;;;;5000137;28;20187;-82
2024/01/06 12:57:31;;;;;;;15.07;9.25;;;;;;;;;;4999709;28;20182;-82
2024/01/06 12:59:57;;;;;;;18.95;10.70;;;;;;;;;;4998881;28;20180;-82
2024/01/06 13:02:23;;;;;;;19.60;9.82;;;;;;;;;;4999602;28;20221;-82
2024/01/06 13:04:49;;;;;;;21.70;11.20;;;;;;;;;;5000291;28;20179;-82
2024/01/06 13:07:15;;;;;;;20.90;11.00;;;;;;;;;;4982631;28;20192;-82
2024/01/06 13:09:41;;;;;;;19.55;10.52;;;;;;;;;;5000073;28;20517;-82
2024/01/06 13:12:08;;;;;;;18.92;9.65;;;;;;;;;;5000165;28;20227;-82
2024/01/06 13:14:35;;;;;;;28.00;10.95;;;;;;;;;;4999866;28;20317;-82
2024/01/06 13:17:02;;;;;;;21.52;12.38;;;;;;;;;;5000240;28;20659;-82
2024/01/06 13:19:28;;;;;;;18.63;10.95;;;;;;;;;;4999940;28;20226;-81
2024/01/06 13:21:54;;;;;;;26.10;11.60;;;;;;;;;;5000070;28;20233;-81
2024/01/06 13:24:20;;;;;;;22.90;9.73;;;;;;;;;;5000845;28;20418;-82
2024/01/06 13:26:46;;;;;;;21.60;10.27;;;;;;;;;;5000606;28;20402;-81
2024/01/06 13:29:12;;;;;;;24.55;10.00;;;;;;;;;;5000985;28;20424;-81
2024/01/06 13:31:39;;;;;;;21.23;11.85;;;;;;;;;;5000052;28;20178;-81
2024/01/06 13:34:05;;;;;;;27.35;16.05;;;;;;;;;;4999695;28;20231;-81
2024/01/06 13:36:31;;;;;;;21.95;12.98;;;;;;;;;;4999708;28;20198;-82
2024/01/06 13:38:59;;;;;;;25.42;13.65;;;;;;;;;;4999791;28;20230;-81
2024/01/06 13:41:26;;;;;;;24.55;14.48;;;;;;;;;;4982548;28;20558;-81
2024/01/06 13:43:52;;;;;;;27.55;11.98;;;;;;;;;;5000047;28;20175;-81
2024/01/06 13:46:18;;;;;;;24.92;15.27;;;;;;;;;;4999844;28;20236;-82
2024/01/06 13:48:44;;;;;;;24.20;12.45;;;;;;;;;;5000540;28;20207;-81
2024/01/06 13:51:10;;;;;;;22.50;13.67;;;;;;;;;;5000137;28;20270;-81
2024/01/06 13:53:36;;;;;;;27.33;16.17;;;;;;;;;;4998601;28;20895;-82
2024/01/06 13:56:02;;;;;;;24.67;12.73;;;;;;;;;;5000168;28;20179;-81
2024/01/06 13:58:29;;;;;;;39.97;20.10;;;;;;;;;;4999288;28;20254;-82
2024/01/06 14:00:55;;;;;;;30.73;16.50;;;;;;;;;;5000042;28;20207;-81
2024/01/06 14:03:22;;;;;;;30.88;14.73;;;;;;;;;;4999220;28;20186;-82
2024/01/06 14:05:48;;;;;;;54.42;26.75;;;;;;;;;;4998972;28;20242;-82
2024/01/06 14:08:14;;;;;;;51.88;26.13;;;;;;;;;;4999377;28;20176;-82
2024/01/06 14:10:40;;;;;;;46.23;22.80;;;;;;;;;;4997766;28;20230;-81
2024/01/06 14:13:07;;;;;;;47.40;23.50;;;;;;;;;;4997993;28;20489;-81
2024/01/06 14:15:33;;;;;;;42.67;20.65;;;;;;;;;;4998789;28;20465;-82
2024/01/06 14:17:59;;;;;;;31.47;15.70;;;;;;;;;;5002794;28;20177;-81